Ash Shaykh Uthman, Yemen
Current Conditions -  °F | °C
As of 3:00 PM on Friday 31 Oct 2014 (Local Time) from OYAA Reporting Station
Clear Clear  
Wind Chill: 90°   Ceiling: Unl
Heat Index: 98°   Visibility: 6mi
Dew Point: 73°   Wind: 14mph
Humidity: 59%   Direction: 150°SSE
Pressure: 29.77"   Gusts: NA
Location:  12.87°N, 44.98°E
Report Text: OYAA 311200Z 15012KT CAVOK 32/23 Q1008 NOSIG
Loading
Personal Weather Stations






























Interactive Weather Map New forecast layout! Learn more

10-Day Weather Forecast

Advertisements
Track Severe Weather on mobile